createdAt,value
2023-05-04T00:00:37.112Z,17.50
2023-05-04T00:01:40.205Z,17.49
2023-05-04T00:02:43.187Z,17.47
2023-05-04T00:03:46.647Z,17.46
2023-05-04T00:06:04.247Z,17.53
2023-05-04T00:07:07.141Z,17.36
2023-05-04T00:08:10.089Z,17.36
2023-05-04T00:09:13.073Z,17.36
2023-05-04T00:10:16.063Z,17.34
2023-05-04T00:11:19.060Z,17.35
2023-05-04T00:12:22.054Z,17.28
2023-05-04T00:13:25.082Z,17.26
2023-05-04T00:14:28.078Z,17.24
2023-05-04T00:15:31.094Z,17.22
2023-05-04T00:16:35.054Z,17.18
2023-05-04T00:17:38.018Z,17.16
2023-05-04T00:18:41.110Z,17.15
2023-05-04T00:19:44.030Z,17.11
2023-05-04T00:20:47.032Z,17.07
2023-05-04T00:21:49.917Z,17.00
2023-05-04T00:22:53.034Z,16.96
2023-05-04T00:23:55.911Z,16.97
2023-05-04T00:24:58.899Z,16.90
2023-05-04T00:26:01.829Z,16.92
2023-05-04T00:27:04.834Z,16.92
2023-05-04T00:28:07.860Z,16.88
2023-05-04T00:29:10.869Z,16.91
2023-05-04T00:30:14.130Z,16.95
2023-05-04T00:31:17.166Z,16.89
2023-05-04T00:32:20.145Z,16.88
2023-05-04T00:33:23.132Z,16.89
2023-05-04T00:34:26.031Z,16.87
2023-05-04T00:35:29.638Z,16.89
2023-05-04T00:36:32.631Z,16.87
2023-05-04T00:37:35.505Z,16.89
2023-05-04T00:38:50.981Z,16.91
2023-05-04T00:39:54.007Z,16.92
2023-05-04T00:40:56.978Z,16.94
2023-05-04T00:42:00.108Z,16.94
2023-05-04T00:43:03.092Z,16.97
2023-05-04T00:44:06.112Z,17.00
2023-05-04T00:45:09.369Z,17.02
2023-05-04T00:46:12.672Z,17.02
2023-05-04T00:47:15.875Z,16.99
2023-05-04T00:48:19.119Z,16.99
2023-05-04T00:49:22.488Z,16.99
2023-05-04T00:50:26.194Z,16.99
2023-05-04T00:51:29.395Z,17.00
2023-05-04T00:52:33.415Z,17.00
2023-05-04T00:53:37.996Z,17.00
2023-05-04T00:54:42.097Z,16.99
2023-05-04T00:55:45.608Z,16.95
2023-05-04T00:56:48.740Z,16.92
2023-05-04T00:57:52.023Z,16.93
2023-05-04T00:58:54.920Z,16.94
2023-05-04T01:01:09.035Z,17.08
2023-05-04T01:02:11.993Z,16.92
2023-05-04T01:04:25.747Z,17.04
2023-05-04T01:05:30.616Z,16.92
2023-05-04T01:06:47.791Z,16.90
2023-05-04T01:07:58.473Z,16.85
2023-05-04T01:12:06.768Z,16.88
2023-05-04T01:13:13.872Z,16.71
2023-05-04T01:15:36.039Z,16.75
2023-05-04T01:16:39.300Z,16.66
2023-05-04T01:17:45.407Z,16.63
2023-05-04T01:18:48.633Z,16.61
2023-05-04T01:19:51.751Z,16.63
2023-05-04T01:20:54.978Z,16.62
2023-05-04T01:21:58.007Z,16.64
2023-05-04T01:23:01.696Z,16.68
2023-05-04T01:24:05.626Z,16.71
2023-05-04T01:25:11.616Z,16.74
2023-05-04T01:26:25.744Z,16.71
2023-05-04T01:31:38.991Z,16.73
2023-05-04T01:32:42.397Z,16.79
2023-05-04T01:33:45.760Z,16.80
2023-05-04T01:34:48.652Z,16.82
2023-05-04T01:35:51.627Z,16.82
2023-05-04T01:36:55.157Z,16.82
2023-05-04T01:37:58.454Z,16.80
2023-05-04T01:39:02.791Z,16.80
2023-05-04T01:40:06.352Z,16.83
2023-05-04T01:41:09.407Z,16.83
2023-05-04T01:42:12.319Z,16.85
2023-05-04T01:43:15.204Z,16.87
2023-05-04T01:44:18.078Z,16.89
2023-05-04T01:45:21.115Z,16.89
2023-05-04T01:46:24.146Z,16.85
2023-05-04T01:47:27.379Z,16.94
2023-05-04T01:48:30.281Z,16.85
2023-05-04T01:49:33.339Z,16.85
2023-05-04T01:50:36.322Z,16.85
2023-05-04T01:51:39.219Z,16.88
2023-05-04T01:55:14.347Z,16.86
2023-05-04T01:56:17.556Z,16.85
2023-05-04T01:57:20.521Z,16.89
2023-05-04T01:58:23.604Z,16.96
2023-05-04T01:59:26.576Z,16.98
2023-05-04T02:00:29.572Z,16.97
2023-05-04T02:02:43.983Z,17.08
2023-05-04T02:03:47.018Z,16.97
2023-05-04T02:04:50.025Z,16.95
2023-05-04T02:05:53.378Z,16.97
2023-05-04T02:06:56.368Z,16.95
2023-05-04T02:07:59.371Z,16.94
2023-05-04T02:09:02.366Z,16.94
2023-05-04T02:10:06.107Z,16.93
2023-05-04T02:11:09.340Z,16.79
2023-05-04T02:12:12.225Z,16.77
2023-05-04T02:13:15.211Z,16.65
2023-05-04T02:14:18.217Z,16.68
2023-05-04T02:15:21.104Z,16.69
2023-05-04T02:16:24.271Z,16.77
2023-05-04T02:17:27.212Z,16.80
2023-05-04T02:18:30.219Z,16.87
2023-05-04T02:19:33.236Z,16.87
2023-05-04T02:20:36.193Z,16.96
2023-05-04T02:21:40.820Z,16.99
2023-05-04T02:22:43.837Z,16.97
2023-05-04T02:23:46.851Z,17.01
2023-05-04T02:24:49.715Z,17.04
2023-05-04T02:25:53.912Z,17.02
2023-05-04T02:26:56.914Z,17.06
2023-05-04T02:27:59.830Z,17.00
2023-05-04T02:29:02.814Z,16.97
2023-05-04T02:30:06.777Z,16.81
2023-05-04T02:31:09.799Z,16.82
2023-05-04T02:32:12.669Z,16.86
2023-05-04T02:33:15.600Z,16.84
2023-05-04T02:34:18.572Z,16.84
2023-05-04T02:35:21.675Z,16.68
2023-05-04T02:36:24.672Z,16.64
2023-05-04T02:37:27.690Z,16.60
2023-05-04T02:38:30.710Z,16.61
2023-05-04T02:39:33.582Z,16.61
2023-05-04T02:40:36.608Z,16.65
2023-05-04T02:41:39.686Z,16.69
2023-05-04T02:42:42.636Z,16.71
2023-05-04T02:43:45.809Z,16.71
2023-05-04T02:44:48.804Z,16.75
2023-05-04T02:45:51.827Z,16.75
2023-05-04T02:46:54.793Z,16.79
2023-05-04T02:47:57.853Z,16.82
2023-05-04T02:49:00.794Z,16.76
2023-05-04T02:50:04.532Z,16.79
2023-05-04T02:51:07.705Z,16.78
2023-05-04T02:52:10.597Z,16.84
2023-05-04T02:54:24.303Z,16.88
2023-05-04T02:55:27.277Z,16.81
2023-05-04T02:56:30.286Z,16.84
2023-05-04T02:57:33.182Z,16.88
2023-05-04T02:58:36.185Z,16.91
2023-05-04T02:59:39.097Z,17.08
2023-05-04T03:00:42.166Z,17.11
2023-05-04T03:01:45.184Z,17.20
2023-05-04T03:04:06.178Z,17.20
2023-05-04T03:05:09.040Z,17.01
2023-05-04T03:06:12.534Z,17.16
2023-05-04T03:07:15.640Z,17.22
2023-05-04T03:08:18.719Z,17.28
2023-05-04T03:09:21.715Z,17.30
2023-05-04T03:10:24.729Z,17.35
2023-05-04T03:11:27.709Z,17.44
2023-05-04T03:12:30.724Z,17.46
2023-05-04T03:13:33.678Z,17.52
2023-05-04T03:14:36.584Z,17.61
2023-05-04T03:15:39.503Z,17.67
2023-05-04T03:16:42.568Z,17.75
2023-05-04T03:17:45.585Z,17.82
2023-05-04T03:20:09.807Z,17.83
2023-05-04T03:21:12.677Z,17.94
2023-05-04T03:22:15.550Z,17.90
2023-05-04T03:23:18.512Z,17.93
2023-05-04T03:24:21.523Z,18.08
2023-05-04T03:25:24.516Z,18.14
2023-05-04T03:26:27.480Z,18.20
2023-05-04T03:27:30.352Z,18.26
2023-05-04T03:28:33.267Z,18.30
2023-05-04T03:29:36.237Z,18.31
2023-05-04T03:30:39.403Z,18.29
2023-05-04T03:31:42.365Z,18.24
2023-05-04T03:32:45.385Z,18.24
2023-05-04T03:33:48.388Z,18.26
2023-05-04T03:34:51.287Z,18.30
2023-05-04T03:35:54.197Z,18.35
2023-05-04T03:36:57.204Z,18.44
2023-05-04T03:38:00.200Z,18.54
2023-05-04T03:39:03.238Z,18.57
2023-05-04T03:40:06.733Z,18.52
2023-05-04T03:41:10.331Z,18.46
2023-05-04T03:42:13.317Z,18.58
2023-05-04T03:43:16.188Z,18.65
2023-05-04T03:44:19.092Z,18.66
2023-05-04T03:45:22.016Z,18.74
2023-05-04T03:46:25.066Z,18.82
2023-05-04T03:47:27.923Z,18.85
2023-05-04T03:48:30.901Z,18.86
2023-05-04T03:49:34.210Z,18.84
2023-05-04T03:50:37.204Z,18.86
2023-05-04T03:51:40.217Z,18.86
2023-05-04T03:52:43.075Z,18.89
2023-05-04T03:54:57.075Z,19.08
2023-05-04T03:56:00.189Z,18.98
2023-05-04T03:57:03.292Z,19.01
2023-05-04T03:58:06.279Z,19.02
2023-05-04T03:59:09.283Z,19.04
2023-05-04T04:00:13.041Z,19.01
2023-05-04T04:02:26.972Z,19.23
2023-05-04T04:03:30.457Z,19.22
2023-05-04T04:04:33.835Z,19.25
2023-05-04T04:05:36.797Z,19.30
2023-05-04T04:06:41.938Z,19.36
2023-05-04T04:07:44.542Z,19.47
2023-05-04T04:08:47.566Z,19.50
2023-05-04T04:09:50.481Z,19.56
2023-05-04T04:10:53.547Z,19.75
2023-05-04T04:11:56.534Z,19.87
2023-05-04T04:12:59.574Z,19.89
2023-05-04T04:14:02.505Z,19.98
2023-05-04T04:15:06.040Z,20.05
2023-05-04T04:16:09.449Z,20.04
2023-05-04T04:17:12.415Z,19.95
2023-05-04T04:18:15.393Z,19.96
2023-05-04T04:19:18.433Z,20.22
2023-05-04T04:20:21.544Z,20.33
2023-05-04T04:21:24.501Z,20.41
2023-05-04T04:22:27.470Z,20.33
2023-05-04T04:23:30.462Z,20.44
2023-05-04T04:24:33.487Z,20.57
2023-05-04T04:25:36.366Z,20.55
2023-05-04T04:26:39.338Z,20.56
2023-05-04T04:27:42.232Z,20.68
2023-05-04T04:28:45.177Z,20.76
2023-05-04T04:29:48.167Z,20.83
2023-05-04T04:30:51.247Z,20.89
2023-05-04T04:31:54.283Z,20.95
2023-05-04T04:32:57.220Z,20.93
2023-05-04T04:34:00.276Z,21.10
2023-05-04T04:35:03.446Z,21.20
2023-05-04T04:36:06.812Z,21.27
2023-05-04T04:37:09.798Z,21.34
2023-05-04T04:38:12.693Z,21.24
2023-05-04T04:39:15.622Z,21.29
2023-05-04T04:40:18.599Z,21.34
2023-05-04T04:41:21.579Z,21.35
2023-05-04T04:42:24.722Z,21.41
2023-05-04T04:43:27.624Z,21.48
2023-05-04T04:44:30.627Z,21.58
2023-05-04T04:45:34.041Z,21.65
2023-05-04T04:46:37.041Z,21.63
2023-05-04T04:47:39.920Z,21.81
2023-05-04T04:48:42.897Z,21.78
2023-05-04T04:49:45.826Z,21.74
2023-05-04T04:50:48.926Z,21.74
2023-05-04T04:51:51.874Z,21.81
2023-05-04T04:52:54.998Z,21.79
2023-05-04T04:53:58.003Z,21.91
2023-05-04T04:55:00.897Z,21.84
2023-05-04T04:56:04.572Z,21.75
2023-05-04T04:58:18.252Z,21.97
2023-05-04T04:59:21.307Z,21.90
2023-05-04T05:00:24.429Z,21.83
2023-05-04T05:01:27.489Z,21.80
2023-05-04T05:03:41.588Z,22.06
2023-05-04T05:04:44.794Z,22.11
2023-05-04T05:05:47.804Z,22.18
2023-05-04T05:06:50.798Z,22.07
2023-05-04T05:07:53.816Z,22.33
2023-05-04T05:08:56.866Z,22.19
2023-05-04T05:09:59.898Z,22.44
2023-05-04T05:11:02.936Z,22.39
2023-05-04T05:12:06.056Z,22.48
2023-05-04T05:13:09.137Z,22.48
2023-05-04T05:14:12.229Z,22.67
2023-05-04T05:15:15.539Z,22.62
2023-05-04T05:16:18.592Z,22.68
2023-05-04T05:17:21.557Z,22.68
2023-05-04T05:18:24.569Z,22.73
2023-05-04T05:19:27.516Z,22.74
2023-05-04T05:20:30.512Z,22.87
2023-05-04T05:21:33.532Z,22.92
2023-05-04T05:22:39.898Z,22.90
2023-05-04T05:24:53.689Z,23.07
2023-05-04T05:25:56.716Z,23.02
2023-05-04T05:28:12.614Z,23.07
2023-05-04T05:29:15.591Z,23.03
2023-05-04T05:30:18.711Z,23.11
2023-05-04T05:32:24.507Z,23.23
2023-05-04T05:33:27.368Z,23.23
2023-05-04T05:34:30.272Z,23.27
2023-05-04T05:35:33.284Z,23.38
2023-05-04T05:36:36.285Z,23.41
2023-05-04T05:37:39.343Z,23.38
2023-05-04T05:38:42.252Z,23.52
2023-05-04T05:39:45.135Z,23.46
2023-05-04T05:40:48.124Z,23.46
2023-05-04T05:43:03.838Z,23.80
2023-05-04T05:44:06.743Z,23.75
2023-05-04T05:45:10.164Z,23.82
2023-05-04T05:46:13.803Z,23.81
2023-05-04T05:48:27.484Z,23.84
2023-05-04T05:50:48.146Z,23.76
2023-05-04T05:51:51.039Z,23.77
2023-05-04T05:52:54.037Z,23.76
2023-05-04T05:53:57.000Z,23.76
2023-05-04T05:55:02.463Z,23.73
2023-05-04T05:56:05.027Z,23.62
2023-05-04T05:57:08.133Z,23.48
2023-05-04T05:59:22.349Z,23.60
2023-05-04T06:00:25.361Z,23.40
2023-05-04T06:01:28.857Z,23.45
2023-05-04T06:02:31.908Z,23.50
2023-05-04T06:03:35.077Z,23.57
2023-05-04T06:04:38.100Z,23.65
2023-05-04T06:06:55.031Z,23.74
2023-05-04T06:09:09.486Z,23.84
2023-05-04T06:10:13.940Z,23.82
2023-05-04T06:11:16.953Z,23.94
2023-05-04T06:12:19.907Z,23.96
2023-05-04T06:13:23.038Z,24.02
2023-05-04T06:15:36.704Z,24.23
2023-05-04T06:17:51.005Z,24.36
2023-05-04T06:20:08.860Z,24.31
2023-05-04T06:21:11.860Z,24.13
2023-05-04T06:23:29.600Z,24.24
2023-05-04T06:24:32.638Z,24.25
2023-05-04T06:26:53.776Z,24.32
2023-05-04T06:27:56.973Z,24.24
2023-05-04T06:29:00.063Z,24.21
2023-05-04T06:30:03.979Z,24.22
2023-05-04T06:31:07.526Z,24.19
2023-05-04T06:32:10.447Z,24.22
2023-05-04T06:34:24.775Z,24.18
2023-05-04T06:36:44.453Z,24.31
2023-05-04T06:37:47.405Z,24.15
2023-05-04T06:40:01.900Z,24.05
2023-05-04T06:41:04.792Z,23.95
2023-05-04T06:42:07.790Z,23.97
2023-05-04T06:44:22.077Z,24.27
2023-05-04T06:45:25.083Z,24.23
2023-05-04T06:47:46.464Z,24.47
2023-05-04T06:50:00.094Z,24.63
2023-05-04T06:52:13.744Z,24.84
2023-05-04T06:53:16.659Z,24.75
2023-05-04T06:55:31.064Z,24.97
2023-05-04T06:56:34.161Z,24.83
2023-05-04T06:57:37.201Z,24.85
2023-05-04T06:58:40.099Z,24.96
2023-05-04T06:59:43.005Z,25.07
2023-05-04T07:00:46.052Z,25.12
2023-05-04T07:03:00.343Z,25.30
2023-05-04T07:05:14.874Z,25.53
2023-05-04T07:06:17.898Z,25.41
2023-05-04T07:07:20.890Z,25.51
2023-05-04T07:08:23.952Z,25.59
2023-05-04T07:10:45.739Z,25.98
2023-05-04T07:11:48.803Z,26.00
2023-05-04T07:14:03.099Z,26.02
2023-05-04T07:16:17.738Z,25.82
2023-05-04T07:19:55.392Z,25.64
2023-05-04T07:23:30.266Z,26.03
2023-05-04T07:25:54.233Z,26.06
2023-05-04T07:26:57.321Z,26.09
2023-05-04T07:29:10.997Z,26.40
2023-05-04T07:31:35.552Z,26.51
2023-05-04T07:32:38.529Z,26.56
2023-05-04T07:34:52.558Z,26.83
2023-05-04T07:38:28.802Z,27.00
2023-05-04T07:40:55.406Z,26.98
2023-05-04T07:41:58.425Z,26.77
2023-05-04T07:44:12.599Z,26.64
2023-05-04T07:45:15.668Z,26.64
2023-05-04T07:46:18.818Z,26.63
2023-05-04T07:47:23.078Z,26.58
2023-05-04T07:48:26.988Z,26.58
2023-05-04T07:49:29.856Z,26.81
2023-05-04T07:50:33.036Z,26.85
2023-05-04T07:51:35.950Z,26.63
2023-05-04T07:52:38.966Z,26.59
2023-05-04T07:53:41.861Z,26.56
2023-05-04T07:54:44.910Z,26.59
2023-05-04T07:55:47.790Z,26.46
2023-05-04T07:56:50.939Z,26.54
2023-05-04T07:57:53.837Z,26.61
2023-05-04T07:58:56.758Z,26.66
2023-05-04T07:59:59.798Z,26.71
2023-05-04T08:01:02.790Z,26.74
2023-05-04T08:03:22.992Z,27.12
2023-05-04T08:04:26.046Z,27.14
2023-05-04T08:05:29.108Z,27.21
2023-05-04T08:06:32.099Z,27.30
2023-05-04T08:08:45.828Z,27.34
2023-05-04T08:09:48.816Z,27.18
2023-05-04T08:10:52.056Z,27.11
2023-05-04T08:11:54.958Z,27.20
2023-05-04T08:12:58.109Z,27.31
2023-05-04T08:14:01.027Z,27.30
2023-05-04T08:16:15.303Z,27.62
2023-05-04T08:18:43.285Z,27.77
2023-05-04T08:20:05.165Z,27.70
2023-05-04T08:21:08.371Z,27.67
2023-05-04T08:23:23.457Z,27.69
2023-05-04T08:24:26.606Z,27.50
2023-05-04T08:25:29.531Z,27.58
2023-05-04T08:30:28.431Z,27.47
2023-05-04T08:33:03.351Z,27.60
2023-05-04T08:35:17.344Z,27.52
2023-05-04T08:37:31.981Z,27.59
2023-05-04T08:39:46.139Z,28.06
2023-05-04T08:40:50.552Z,28.10
2023-05-04T08:43:08.251Z,28.45
2023-05-04T08:44:11.354Z,28.36
2023-05-04T08:46:32.904Z,28.64
2023-05-04T08:47:36.089Z,28.62
2023-05-04T08:52:15.490Z,28.19
2023-05-04T08:53:20.186Z,28.21
2023-05-04T08:55:44.531Z,28.24
2023-05-04T08:58:03.174Z,28.44
2023-05-04T09:00:19.221Z,28.68
2023-05-04T09:03:58.629Z,29.04
2023-05-04T09:06:19.094Z,29.08
2023-05-04T09:07:22.141Z,29.11
2023-05-04T09:08:26.100Z,29.15
2023-05-04T09:09:28.994Z,29.29
2023-05-04T09:10:32.727Z,29.23
2023-05-04T09:12:46.957Z,29.81
2023-05-04T09:15:00.602Z,30.32
2023-05-04T09:16:03.963Z,30.06
2023-05-04T09:18:26.268Z,30.49
2023-05-04T09:19:29.112Z,30.21
2023-05-04T09:23:08.452Z,30.24
2023-05-04T09:24:11.789Z,30.31
2023-05-04T09:25:14.678Z,30.45
2023-05-04T09:26:28.294Z,30.53
2023-05-04T09:29:56.381Z,30.79
2023-05-04T09:31:00.566Z,30.78
2023-05-04T09:32:04.042Z,30.96
2023-05-04T09:34:53.439Z,31.48
2023-05-04T09:35:58.255Z,31.49
2023-05-04T09:41:18.253Z,31.52
2023-05-04T09:45:06.690Z,31.78
2023-05-04T09:46:17.597Z,31.88
2023-05-04T09:47:20.566Z,31.96
2023-05-04T09:54:05.115Z,31.55
2023-05-04T09:55:10.101Z,31.38
2023-05-04T09:56:18.023Z,31.58
2023-05-04T09:57:21.084Z,31.71
2023-05-04T09:58:24.980Z,31.88
2023-05-04T09:59:29.692Z,32.09
2023-05-04T10:00:34.675Z,32.02
2023-05-04T10:01:38.185Z,32.23
2023-05-04T10:05:20.739Z,31.74
2023-05-04T10:08:59.564Z,30.94
2023-05-04T10:10:05.850Z,30.55
2023-05-04T10:12:22.297Z,31.62
2023-05-04T10:13:25.408Z,31.89
2023-05-04T10:14:32.750Z,31.91
2023-05-04T10:15:37.749Z,32.19
2023-05-04T10:16:42.721Z,32.34
2023-05-04T10:17:56.804Z,32.47
2023-05-04T10:19:11.056Z,32.67
2023-05-04T10:20:16.050Z,32.62
2023-05-04T10:22:46.516Z,32.84
2023-05-04T10:24:00.734Z,32.87
2023-05-04T10:26:34.690Z,33.32
2023-05-04T10:27:56.417Z,33.14
2023-05-04T10:29:04.612Z,33.16
2023-05-04T10:30:09.933Z,33.16
2023-05-04T10:31:13.316Z,33.25
2023-05-04T10:32:20.388Z,33.51
2023-05-04T10:33:24.382Z,33.39
2023-05-04T10:34:31.927Z,33.43
2023-05-04T10:35:35.220Z,33.35
2023-05-04T10:36:39.095Z,33.30
2023-05-04T10:39:02.026Z,33.38
2023-05-04T10:40:07.296Z,33.30
2023-05-04T10:41:14.333Z,33.39
2023-05-04T10:43:29.578Z,33.66
2023-05-04T10:45:48.777Z,33.66
2023-05-04T10:47:10.531Z,33.34
2023-05-04T10:48:13.799Z,33.39
2023-05-04T10:49:17.014Z,33.47
2023-05-04T10:51:46.490Z,33.77
2023-05-04T10:52:49.062Z,33.81
2023-05-04T10:53:52.804Z,33.91
2023-05-04T10:54:59.743Z,33.96
2023-05-04T10:56:03.039Z,33.85
2023-05-04T10:58:22.279Z,34.32
2023-05-04T10:59:25.474Z,34.34
2023-05-04T11:00:36.025Z,34.34
2023-05-04T11:01:43.859Z,34.45
2023-05-04T11:02:48.262Z,34.48
2023-05-04T11:03:52.005Z,34.61
2023-05-04T11:06:23.743Z,34.28
2023-05-04T11:07:37.631Z,34.16
2023-05-04T11:08:41.570Z,34.12
2023-05-04T11:09:44.654Z,34.05
2023-05-04T11:10:48.782Z,33.77
2023-05-04T11:11:52.712Z,33.72
2023-05-04T11:12:56.767Z,33.59
2023-05-04T11:14:00.170Z,33.62
2023-05-04T11:15:04.634Z,33.71
2023-05-04T11:17:28.943Z,34.02
2023-05-04T11:19:48.020Z,34.40
2023-05-04T11:20:51.138Z,34.27
2023-05-04T11:21:54.250Z,34.41
2023-05-04T11:22:57.813Z,34.41
2023-05-04T11:24:00.913Z,34.38
2023-05-04T11:25:04.560Z,34.39
2023-05-04T11:26:09.218Z,34.31
2023-05-04T11:27:25.438Z,34.33
2023-05-04T11:28:32.068Z,34.47
2023-05-04T11:32:14.994Z,34.92
2023-05-04T11:33:18.186Z,34.19
2023-05-04T11:34:21.328Z,34.46
2023-05-04T11:35:24.319Z,34.32
2023-05-04T11:36:27.514Z,34.27
2023-05-04T11:38:42.972Z,35.00
2023-05-04T11:39:46.158Z,34.84
2023-05-04T11:40:49.363Z,34.92
2023-05-04T11:41:52.542Z,34.81
2023-05-04T11:44:08.635Z,34.45
2023-05-04T11:45:18.843Z,34.53
2023-05-04T11:47:34.985Z,34.58
2023-05-04T11:49:52.562Z,34.47
2023-05-04T11:52:07.056Z,34.73
2023-05-04T11:55:34.191Z,34.99
2023-05-04T11:56:42.166Z,35.01
2023-05-04T11:58:55.776Z,35.04
2023-05-04T12:01:09.959Z,34.31
2023-05-04T12:02:16.733Z,33.87
2023-05-04T12:04:36.418Z,34.06
2023-05-04T12:07:01.540Z,34.01
2023-05-04T12:09:43.361Z,34.05
2023-05-04T12:12:07.463Z,34.60
2023-05-04T12:14:33.546Z,34.61
2023-05-04T12:16:57.999Z,34.89
2023-05-04T12:18:03.000Z,34.60
2023-05-04T12:20:23.382Z,34.71
2023-05-04T12:24:05.230Z,33.39
2023-05-04T12:27:47.942Z,32.90
2023-05-04T12:31:25.375Z,32.93
2023-05-04T12:33:54.806Z,31.28
2023-05-04T12:34:57.838Z,31.08
2023-05-04T12:39:45.883Z,32.67
2023-05-04T12:42:06.069Z,32.54
2023-05-04T12:44:20.358Z,32.63
2023-05-04T12:46:34.478Z,32.97
2023-05-04T12:48:49.181Z,33.40
2023-05-04T12:51:13.385Z,31.95
2023-05-04T12:53:33.519Z,32.85
2023-05-04T12:56:50.260Z,34.08
2023-05-04T12:59:03.912Z,34.09
2023-05-04T13:01:18.895Z,34.12
2023-05-04T13:03:36.006Z,34.42
2023-05-04T13:05:50.134Z,34.35
2023-05-04T13:08:04.388Z,34.58
2023-05-04T13:10:24.752Z,34.95
2023-05-04T13:11:27.811Z,35.10
2023-05-04T13:13:47.858Z,34.75
2023-05-04T13:16:02.110Z,34.86
2023-05-04T13:19:27.312Z,35.08
2023-05-04T13:21:43.635Z,35.20
2023-05-04T13:23:57.716Z,34.38
2023-05-04T13:26:11.985Z,34.81
2023-05-04T13:28:25.590Z,35.39
2023-05-04T13:30:39.615Z,35.83
2023-05-04T13:32:53.931Z,34.80
2023-05-04T13:33:56.858Z,35.03
2023-05-04T13:36:10.952Z,35.25
2023-05-04T13:38:31.096Z,35.08
2023-05-04T13:42:02.930Z,35.25
2023-05-04T13:43:05.822Z,35.16
2023-05-04T13:45:19.662Z,35.95
2023-05-04T13:47:39.923Z,36.43
2023-05-04T13:48:43.133Z,36.42
2023-05-04T13:50:57.539Z,36.73
2023-05-04T13:53:11.756Z,36.69
2023-05-04T13:55:25.364Z,36.59
2023-05-04T13:57:39.744Z,36.12
2023-05-04T13:58:42.626Z,35.78
2023-05-04T13:59:58.378Z,35.52
2023-05-04T14:02:07.315Z,34.94
2023-05-04T14:04:21.172Z,33.90
2023-05-04T14:06:35.321Z,33.38
2023-05-04T14:08:49.356Z,32.96
2023-05-04T14:11:19.493Z,32.48
2023-05-04T14:13:39.525Z,32.38
2023-05-04T14:17:04.878Z,32.12
2023-05-04T14:19:18.556Z,32.05
2023-05-04T14:21:38.658Z,31.35
2023-05-04T14:22:41.632Z,31.01
2023-05-04T14:24:55.666Z,30.49
2023-05-04T14:28:21.041Z,30.89
2023-05-04T14:30:45.234Z,30.27
2023-05-04T14:32:58.862Z,30.50
2023-05-04T14:36:34.145Z,30.22
2023-05-04T14:40:10.397Z,29.98
2023-05-04T14:42:35.804Z,29.82
2023-05-04T14:46:11.509Z,29.68
2023-05-04T14:49:48.564Z,29.59
2023-05-04T14:52:13.218Z,29.35
2023-05-04T14:54:37.046Z,29.22
2023-05-04T14:56:51.176Z,29.09
2023-05-04T14:59:05.481Z,29.09
2023-05-04T15:01:21.789Z,28.93
2023-05-04T15:05:01.785Z,28.81
2023-05-04T15:07:22.599Z,28.75
2023-05-04T15:09:28.072Z,28.56
2023-05-04T15:10:31.110Z,28.55
2023-05-04T15:12:46.206Z,28.30
2023-05-04T15:15:01.025Z,27.79
2023-05-04T15:17:15.390Z,27.73
2023-05-04T15:19:31.423Z,27.49
2023-05-04T15:21:48.903Z,27.48
2023-05-04T15:22:53.719Z,27.33
2023-05-04T15:25:13.963Z,27.24
2023-05-04T15:27:29.192Z,27.07
2023-05-04T15:29:56.162Z,26.82
2023-05-04T15:32:11.292Z,26.57
2023-05-04T15:34:25.427Z,26.47
2023-05-04T15:36:40.671Z,26.35
2023-05-04T15:38:54.852Z,26.31
2023-05-04T15:39:59.107Z,26.05
2023-05-04T15:42:13.625Z,26.00
2023-05-04T15:43:16.660Z,25.86
2023-05-04T15:44:19.599Z,25.68
2023-05-04T15:45:22.692Z,25.67
2023-05-04T15:46:25.786Z,25.48
2023-05-04T15:47:28.801Z,25.29
2023-05-04T15:52:12.484Z,24.98
2023-05-04T15:54:26.103Z,25.10
2023-05-04T15:55:29.097Z,25.03
2023-05-04T15:57:43.763Z,25.20
2023-05-04T15:58:46.749Z,25.22
2023-05-04T16:01:07.484Z,25.47
2023-05-04T16:03:23.880Z,25.71
2023-05-04T16:07:00.019Z,25.89
2023-05-04T16:09:24.244Z,25.76
2023-05-04T16:11:38.411Z,25.69
2023-05-04T16:14:02.553Z,25.32
2023-05-04T16:16:18.529Z,25.37
2023-05-04T16:18:42.838Z,25.23
2023-05-04T16:20:57.970Z,25.20
2023-05-04T16:23:22.038Z,25.06
2023-05-04T16:24:25.035Z,25.23
2023-05-04T16:25:27.950Z,25.15
2023-05-04T16:26:30.988Z,25.12
2023-05-04T16:28:46.035Z,24.78
2023-05-04T16:32:30.515Z,24.06
2023-05-04T16:34:44.732Z,23.60
2023-05-04T16:37:00.523Z,23.25
2023-05-04T16:38:03.577Z,23.20
2023-05-04T16:39:06.716Z,22.87
2023-05-04T16:40:10.649Z,22.85
2023-05-04T16:42:24.505Z,22.95
2023-05-04T16:44:46.260Z,22.46
2023-05-04T16:45:49.290Z,22.72
2023-05-04T16:48:05.265Z,22.60
2023-05-04T16:49:10.090Z,22.23
2023-05-04T16:51:30.401Z,22.64
2023-05-04T16:52:33.300Z,22.62
2023-05-04T16:54:53.596Z,22.72
2023-05-04T16:57:13.708Z,22.75
2023-05-04T16:59:29.866Z,22.22
2023-05-04T17:01:50.448Z,22.18
2023-05-04T17:04:04.363Z,22.11
2023-05-04T17:05:07.569Z,21.96
2023-05-04T17:06:10.609Z,21.79
2023-05-04T17:07:13.728Z,21.81
2023-05-04T17:08:16.767Z,21.75
2023-05-04T17:10:32.070Z,22.14
2023-05-04T17:12:45.704Z,21.93
2023-05-04T17:15:00.220Z,22.23
2023-05-04T17:17:15.089Z,22.32
2023-05-04T17:18:18.070Z,22.23
2023-05-04T17:20:32.386Z,22.47
2023-05-04T17:24:04.846Z,22.71
2023-05-04T17:25:08.984Z,22.61
2023-05-04T17:26:12.054Z,22.47
2023-05-04T17:27:15.030Z,22.28
2023-05-04T17:28:17.935Z,22.19
2023-05-04T17:29:20.879Z,22.26
2023-05-04T17:30:23.988Z,22.37
2023-05-04T17:31:27.044Z,22.37
2023-05-04T17:32:30.145Z,22.28
2023-05-04T17:33:33.126Z,21.78
2023-05-04T17:34:36.093Z,21.57
2023-05-04T17:35:38.980Z,21.55
2023-05-04T17:39:06.373Z,21.66
2023-05-04T17:40:10.248Z,21.58
2023-05-04T17:41:13.297Z,21.62
2023-05-04T17:42:16.267Z,21.60
2023-05-04T17:43:19.288Z,21.49
2023-05-04T17:44:22.432Z,21.46
2023-05-04T17:45:25.628Z,21.38
2023-05-04T17:46:28.777Z,21.35
2023-05-04T17:47:31.947Z,21.45
2023-05-04T17:48:34.828Z,21.49
2023-05-04T17:49:37.726Z,21.41
2023-05-04T17:50:40.805Z,21.38
2023-05-04T17:51:44.411Z,21.34
2023-05-04T17:52:54.141Z,21.28
2023-05-04T17:53:57.372Z,21.06
2023-05-04T17:55:00.371Z,20.76
2023-05-04T17:56:03.545Z,20.68
2023-05-04T17:57:06.441Z,20.68
2023-05-04T17:58:09.337Z,20.83
2023-05-04T17:59:12.272Z,20.81
2023-05-04T18:00:15.561Z,20.86
2023-05-04T18:01:18.689Z,20.97
2023-05-04T18:02:21.756Z,20.86
2023-05-04T18:03:24.708Z,20.70
2023-05-04T18:05:40.368Z,21.01
2023-05-04T18:06:43.460Z,21.00
2023-05-04T18:07:46.560Z,21.04
2023-05-04T18:08:49.529Z,21.12
2023-05-04T18:09:52.607Z,20.98
2023-05-04T18:10:55.578Z,21.05
2023-05-04T18:11:58.505Z,21.10
2023-05-04T18:13:01.488Z,20.91
2023-05-04T18:14:04.457Z,20.95
2023-05-04T18:15:08.234Z,20.88
2023-05-04T18:16:11.660Z,21.05
2023-05-04T18:17:14.686Z,21.00
2023-05-04T18:18:17.715Z,20.77
2023-05-04T18:19:20.600Z,20.86
2023-05-04T18:20:23.706Z,20.84
2023-05-04T18:21:26.761Z,20.82
2023-05-04T18:22:29.758Z,20.76
2023-05-04T18:23:32.714Z,20.67
2023-05-04T18:24:35.624Z,20.82
2023-05-04T18:25:38.757Z,20.94
2023-05-04T18:26:41.961Z,20.97
2023-05-04T18:27:45.053Z,21.11
2023-05-04T18:28:48.596Z,21.16
2023-05-04T18:29:51.695Z,21.24
2023-05-04T18:32:15.918Z,21.29
2023-05-04T18:33:19.004Z,21.00
2023-05-04T18:34:22.106Z,20.94
2023-05-04T18:35:25.225Z,20.91
2023-05-04T18:36:28.224Z,20.99
2023-05-04T18:37:31.651Z,20.94
2023-05-04T18:38:34.679Z,20.94
2023-05-04T18:39:37.580Z,21.00
2023-05-04T18:40:41.991Z,21.09
2023-05-04T18:41:45.065Z,21.24
2023-05-04T18:42:48.058Z,21.35
2023-05-04T18:43:50.992Z,21.40
2023-05-04T18:44:54.084Z,21.32
2023-05-04T18:45:57.144Z,21.34
2023-05-04T18:47:00.294Z,21.35
2023-05-04T18:48:03.462Z,21.29
2023-05-04T18:49:06.470Z,21.24
2023-05-04T18:50:10.259Z,21.30
2023-05-04T18:51:13.488Z,21.26
2023-05-04T18:52:16.695Z,21.29
2023-05-04T18:53:19.718Z,21.23
2023-05-04T18:54:22.892Z,21.21
2023-05-04T18:55:25.854Z,21.21
2023-05-04T18:56:28.954Z,21.08
2023-05-04T18:57:31.949Z,21.14
2023-05-04T18:58:36.074Z,21.13
2023-05-04T18:59:39.206Z,21.14
2023-05-04T19:00:42.228Z,21.19
2023-05-04T19:01:45.265Z,21.29
2023-05-04T19:02:48.345Z,21.29
2023-05-04T19:03:51.433Z,21.35
2023-05-04T19:06:09.902Z,21.47
2023-05-04T19:07:13.214Z,21.28
2023-05-04T19:08:16.354Z,21.21
2023-05-04T19:09:19.513Z,21.25